createdAt,value
2018-04-18T00:00:57.405Z,97.10
2018-04-18T00:04:00.633Z,97.30
2018-04-18T00:07:03.865Z,97.30
2018-04-18T00:10:07.101Z,97.30
2018-04-18T00:13:10.342Z,97.30
2018-04-18T00:16:13.559Z,97.40
2018-04-18T00:19:17.863Z,97.00
2018-04-18T00:22:21.110Z,97.00
2018-04-18T00:25:24.349Z,97.30
2018-04-18T00:28:27.574Z,97.10
2018-04-18T00:31:30.868Z,97.50
2018-04-18T00:34:34.853Z,97.50
2018-04-18T00:37:38.120Z,97.40
2018-04-18T00:40:41.332Z,97.50
2018-04-18T00:43:44.636Z,97.30
2018-04-18T00:46:47.837Z,97.50
2018-04-18T00:49:51.052Z,97.50
2018-04-18T00:52:54.313Z,97.40
2018-04-18T00:55:58.298Z,97.80
2018-04-18T00:59:01.578Z,97.60
2018-04-18T01:02:04.789Z,97.50
2018-04-18T01:05:07.998Z,97.60
2018-04-18T01:08:11.175Z,97.70
2018-04-18T01:11:14.375Z,97.60
2018-04-18T01:14:17.577Z,97.50
2018-04-18T01:17:20.817Z,98.10
2018-04-18T01:20:24.804Z,98.10
2018-04-18T01:23:28.519Z,98.00
2018-04-18T01:26:31.846Z,98.00
2018-04-18T01:29:35.085Z,97.80
2018-04-18T01:32:38.429Z,98.00
2018-04-18T01:35:41.682Z,97.90
2018-04-18T01:38:45.011Z,97.90
2018-04-18T01:41:48.297Z,98.10
2018-04-18T01:44:51.652Z,98.10
2018-04-18T01:47:54.990Z,98.30
2018-04-18T01:50:58.225Z,98.40
2018-04-18T01:54:02.225Z,98.30
2018-04-18T01:57:06.214Z,98.20
2018-04-18T02:00:09.457Z,98.10
2018-04-18T02:03:12.708Z,97.90
2018-04-18T02:06:15.924Z,97.80
2018-04-18T02:09:19.907Z,98.20
2018-04-18T02:12:23.106Z,98.10
2018-04-18T02:15:26.343Z,98.10
2018-04-18T02:18:29.546Z,98.60
2018-04-18T02:21:32.755Z,98.10
2018-04-18T02:24:35.976Z,98.10
2018-04-18T02:27:39.182Z,98.30
2018-04-18T02:30:42.629Z,98.00
2018-04-18T02:33:46.897Z,98.20
2018-04-18T02:36:50.148Z,98.10
2018-04-18T02:39:53.477Z,98.30
2018-04-18T02:42:58.347Z,98.10
2018-04-18T02:46:01.600Z,98.00
2018-04-18T02:49:04.881Z,98.10
2018-04-18T02:52:08.092Z,97.90
2018-04-18T02:55:11.606Z,97.90
2018-04-18T02:58:14.840Z,97.80
2018-04-18T03:04:28.369Z,98.40
2018-04-18T03:07:31.666Z,98.30
2018-04-18T03:10:34.965Z,98.50
2018-04-18T03:13:38.949Z,98.50
2018-04-18T03:16:42.242Z,98.40
2018-04-18T03:19:45.697Z,98.10
2018-04-18T03:22:48.925Z,98.20
2018-04-18T03:25:52.118Z,98.40
2018-04-18T03:28:55.297Z,98.10
2018-04-18T03:31:58.485Z,98.30
2018-04-18T03:35:01.709Z,98.40
2018-04-18T03:38:05.209Z,98.50
2018-04-18T03:41:09.118Z,98.50
2018-04-18T03:44:12.319Z,98.40
2018-04-18T03:47:15.632Z,98.10
2018-04-18T03:50:19.554Z,98.20
2018-04-18T03:53:22.706Z,98.50
2018-04-18T03:56:25.882Z,98.20
2018-04-18T03:59:29.818Z,98.20
2018-04-18T04:02:33.003Z,98.20
2018-04-18T04:05:36.958Z,98.20
2018-04-18T04:08:40.118Z,98.10
2018-04-18T04:11:44.324Z,98.20
2018-04-18T04:14:47.486Z,98.10
2018-04-18T04:18:02.567Z,98.20
2018-04-18T04:21:17.575Z,98.00
2018-04-18T04:24:28.130Z,98.00
2018-04-18T04:27:32.258Z,98.00
2018-04-18T04:30:35.419Z,98.00
2018-04-18T04:33:38.614Z,98.20
2018-04-18T04:36:42.652Z,98.10
2018-04-18T04:39:45.872Z,98.00
2018-04-18T04:42:49.055Z,98.40
2018-04-18T04:45:52.226Z,98.60
2018-04-18T04:48:56.177Z,99.70
2018-04-18T04:51:59.340Z,99.70
2018-04-18T04:55:02.530Z,99.90
2018-04-18T04:58:06.337Z,99.90
2018-04-18T05:01:09.529Z,99.90
2018-04-18T05:04:12.727Z,99.90
2018-04-18T05:07:15.954Z,99.90
2018-04-18T05:10:19.180Z,99.90
2018-04-18T05:13:22.339Z,99.90
2018-04-18T05:16:25.808Z,99.90
2018-04-18T05:19:29.065Z,99.90
2018-04-18T05:22:32.332Z,99.90
2018-04-18T05:25:35.526Z,99.90
2018-04-18T05:28:38.700Z,99.90
2018-04-18T05:31:42.085Z,99.90
2018-04-18T05:34:46.119Z,99.50
2018-04-18T05:37:49.309Z,99.50
2018-04-18T05:40:52.492Z,99.40
2018-04-18T05:43:55.677Z,99.70
2018-04-18T05:46:59.622Z,98.40
2018-04-18T05:50:02.783Z,98.30
2018-04-18T05:53:06.716Z,98.40
2018-04-18T05:56:09.902Z,98.30
2018-04-18T05:59:13.091Z,97.90
2018-04-18T06:02:16.306Z,97.30
2018-04-18T06:05:19.479Z,96.40
2018-04-18T06:08:22.713Z,96.90
2018-04-18T06:11:25.888Z,96.80
2018-04-18T06:14:29.077Z,96.30
2018-04-18T06:17:32.250Z,96.40
2018-04-18T06:20:35.462Z,96.40
2018-04-18T06:23:38.698Z,95.80
2018-04-18T06:26:42.104Z,95.40
2018-04-18T06:29:45.272Z,95.00
2018-04-18T06:32:48.456Z,93.90
2018-04-18T06:35:51.709Z,93.70
2018-04-18T06:38:55.640Z,93.00
2018-04-18T06:41:58.918Z,92.70
2018-04-18T06:45:02.084Z,92.70
2018-04-18T06:48:06.642Z,89.20
2018-04-18T06:51:10.662Z,81.10
2018-04-18T06:54:13.864Z,80.80
2018-04-18T06:57:17.818Z,66.90
2018-04-18T07:00:21.020Z,66.80
2018-04-18T07:03:24.271Z,63.10
2018-04-18T07:06:28.184Z,56.30
2018-04-18T07:09:31.386Z,56.20
2018-04-18T07:12:34.575Z,55.70
2018-04-18T07:15:37.761Z,55.20
2018-04-18T07:18:41.257Z,51.90
2018-04-18T07:21:44.467Z,50.10
2018-04-18T07:24:47.650Z,47.50
2018-04-18T07:27:51.622Z,44.80
2018-04-18T07:30:54.918Z,44.60
2018-04-18T07:33:58.213Z,44.90
2018-04-18T07:37:01.516Z,48.10
2018-04-18T07:40:04.752Z,46.70
2018-04-18T07:43:07.967Z,45.80
2018-04-18T07:46:11.185Z,44.90
2018-04-18T07:49:15.167Z,41.60
2018-04-18T07:52:18.355Z,41.50
2018-04-18T07:55:21.559Z,40.60
2018-04-18T07:58:24.772Z,40.60
2018-04-18T08:01:27.951Z,38.80
2018-04-18T08:04:31.218Z,39.40
2018-04-18T08:07:34.425Z,39.20
2018-04-18T08:10:37.661Z,37.60
2018-04-18T08:13:42.103Z,35.80
2018-04-18T08:16:45.410Z,36.50
2018-04-18T08:19:48.548Z,36.20
2018-04-18T08:22:51.732Z,35.60
2018-04-18T08:25:54.921Z,36.10
2018-04-18T08:28:58.099Z,35.20
2018-04-18T08:32:02.060Z,37.60
2018-04-18T08:35:05.691Z,37.50
2018-04-18T08:38:08.876Z,37.30
2018-04-18T08:41:12.895Z,37.40
2018-04-18T08:44:16.127Z,37.40
2018-04-18T08:47:20.187Z,38.70
2018-04-18T08:50:23.334Z,38.70
2018-04-18T08:53:26.571Z,39.60
2018-04-18T08:56:29.761Z,37.80
2018-04-18T08:59:32.923Z,38.50
2018-04-18T09:02:36.096Z,38.10
2018-04-18T09:05:40.497Z,39.40
2018-04-18T09:08:44.589Z,37.90
2018-04-18T09:11:47.807Z,37.90
2018-04-18T09:14:51.302Z,37.80
2018-04-18T09:17:54.542Z,36.10
2018-04-18T09:20:57.765Z,33.40
2018-04-18T09:24:04.733Z,31.90
2018-04-18T09:27:14.591Z,31.50
2018-04-18T09:30:18.876Z,30.70
2018-04-18T09:33:35.132Z,31.00
2018-04-18T09:36:38.481Z,33.10
2018-04-18T09:39:51.399Z,34.60
2018-04-18T09:42:54.711Z,33.70
2018-04-18T09:45:58.643Z,32.70
2018-04-18T09:49:01.829Z,32.60
2018-04-18T09:52:05.048Z,31.10
2018-04-18T09:55:08.214Z,30.20
2018-04-18T09:58:11.394Z,29.90
2018-04-18T10:01:19.507Z,30.00
2018-04-18T10:04:28.376Z,29.90
2018-04-18T10:07:31.592Z,30.00
2018-04-18T10:10:34.781Z,32.50
2018-04-18T10:13:38.005Z,32.10
2018-04-18T10:16:41.356Z,32.50
2018-04-18T10:19:44.510Z,32.30
2018-04-18T10:22:47.844Z,32.70
2018-04-18T10:25:51.033Z,34.20
2018-04-18T10:28:54.260Z,36.40
2018-04-18T10:31:58.257Z,31.50
2018-04-18T10:35:01.511Z,31.50
2018-04-18T10:38:04.790Z,32.50
2018-04-18T10:41:08.430Z,32.80
2018-04-18T10:44:11.609Z,31.40
2018-04-18T10:47:14.819Z,30.00
2018-04-18T10:50:17.985Z,31.30
2018-04-18T10:53:21.193Z,32.30
2018-04-18T10:56:24.410Z,28.90
2018-04-18T10:59:27.661Z,31.80
2018-04-18T11:02:30.895Z,32.80
2018-04-18T11:05:34.875Z,33.80
2018-04-18T11:08:38.823Z,34.60
2018-04-18T11:11:42.066Z,34.50
2018-04-18T11:14:46.051Z,34.30
2018-04-18T11:17:49.251Z,34.30
2018-04-18T11:20:53.293Z,29.20
2018-04-18T11:23:56.506Z,29.10
2018-04-18T11:26:59.778Z,29.90
2018-04-18T11:30:02.935Z,31.80
2018-04-18T11:33:06.128Z,29.60
2018-04-18T11:36:09.329Z,29.40
2018-04-18T11:39:13.168Z,29.90
2018-04-18T11:42:16.354Z,29.80
2018-04-18T11:45:20.989Z,31.30
2018-04-18T11:48:24.955Z,32.10
2018-04-18T11:51:28.098Z,32.00
2018-04-18T11:54:32.115Z,31.90
2018-04-18T11:57:36.110Z,33.40
2018-04-18T12:00:39.286Z,33.30
2018-04-18T12:03:42.573Z,33.30
2018-04-18T12:06:45.729Z,34.30
2018-04-18T12:09:48.938Z,34.80
2018-04-18T12:12:52.112Z,34.10
2018-04-18T12:15:56.473Z,34.70
2018-04-18T12:18:59.632Z,34.70
2018-04-18T12:22:03.752Z,36.00
2018-04-18T12:25:06.927Z,33.50
2018-04-18T12:28:10.145Z,35.20
2018-04-18T12:31:13.338Z,33.30
2018-04-18T12:34:16.497Z,30.70
2018-04-18T12:37:19.670Z,34.00
2018-04-18T12:40:22.855Z,32.10
2018-04-18T12:43:26.068Z,35.00
2018-04-18T12:46:29.247Z,35.30
2018-04-18T12:49:35.348Z,33.70
2018-04-18T12:52:38.592Z,31.90
2018-04-18T12:55:41.988Z,30.60
2018-04-18T12:58:45.175Z,30.00
2018-04-18T13:01:48.341Z,31.20
2018-04-18T13:08:01.187Z,29.30
2018-04-18T13:11:04.376Z,32.20
2018-04-18T13:14:07.567Z,32.90
2018-04-18T13:17:11.526Z,31.10
2018-04-18T13:20:14.745Z,31.00
2018-04-18T13:23:17.904Z,30.60
2018-04-18T13:26:21.407Z,30.30
2018-04-18T13:29:24.580Z,30.60
2018-04-18T13:32:27.840Z,30.10
2018-04-18T13:35:31.017Z,30.60
2018-04-18T13:38:34.259Z,31.20
2018-04-18T13:41:37.482Z,32.30
2018-04-18T13:44:41.018Z,32.90
2018-04-18T13:47:44.244Z,29.80
2018-04-18T13:50:48.216Z,29.80
2018-04-18T13:53:51.356Z,29.70
2018-04-18T13:56:55.557Z,32.80
2018-04-18T13:59:58.817Z,31.00
2018-04-18T14:03:01.991Z,32.20
2018-04-18T14:06:05.156Z,30.00
2018-04-18T14:09:08.339Z,32.80
2018-04-18T14:12:11.542Z,34.40
2018-04-18T14:15:14.734Z,34.30
2018-04-18T14:18:19.607Z,35.60
2018-04-18T14:21:22.800Z,35.50
2018-04-18T14:24:26.006Z,35.50
2018-04-18T14:27:29.233Z,35.50
2018-04-18T14:30:33.188Z,34.60
2018-04-18T14:33:36.444Z,34.50
2018-04-18T14:36:40.548Z,35.80
2018-04-18T14:39:43.711Z,35.70
2018-04-18T14:42:47.898Z,36.50
2018-04-18T14:45:51.123Z,35.50
2018-04-18T14:48:54.279Z,35.30
2018-04-18T14:51:57.496Z,34.60
2018-04-18T14:55:00.714Z,35.30
2018-04-18T14:58:03.870Z,35.90
2018-04-18T15:01:07.418Z,34.30
2018-04-18T15:04:11.390Z,34.20
2018-04-18T15:07:14.583Z,34.00
2018-04-18T15:10:17.771Z,34.00
2018-04-18T15:13:20.985Z,34.80
2018-04-18T15:16:24.458Z,34.00
2018-04-18T15:19:27.661Z,33.40
2018-04-18T15:22:30.834Z,33.90
2018-04-18T15:25:34.033Z,32.40
2018-04-18T15:28:37.313Z,32.70
2018-04-18T15:31:40.537Z,32.80
2018-04-18T15:34:45.395Z,33.50
2018-04-18T15:37:48.583Z,33.20
2018-04-18T15:40:51.872Z,33.00
2018-04-18T15:43:55.062Z,33.50
2018-04-18T15:46:58.259Z,32.60
2018-04-18T15:50:01.428Z,31.60
2018-04-18T15:53:05.465Z,31.70
2018-04-18T15:56:08.638Z,31.60
2018-04-18T15:59:11.864Z,31.80
2018-04-18T16:02:15.036Z,31.80
2018-04-18T16:05:19.205Z,31.80
2018-04-18T16:08:24.207Z,31.60
2018-04-18T16:11:27.457Z,32.10
2018-04-18T16:18:08.343Z,34.40
2018-04-18T16:21:11.575Z,33.10
2018-04-18T16:24:15.770Z,33.30
2018-04-18T16:27:19.014Z,32.60
2018-04-18T16:30:34.254Z,32.80
2018-04-18T16:33:38.334Z,33.50
2018-04-18T16:36:42.142Z,34.00
2018-04-18T16:39:46.146Z,35.40
2018-04-18T16:42:50.145Z,34.90
2018-04-18T16:45:53.322Z,34.80
2018-04-18T16:48:56.507Z,34.80
2018-04-18T16:52:00.549Z,36.60
2018-04-18T16:55:03.701Z,36.40
2018-04-18T16:58:06.910Z,37.10
2018-04-18T17:01:10.094Z,38.10
2018-04-18T17:04:13.418Z,38.80
2018-04-18T17:07:16.615Z,37.10
2018-04-18T17:10:19.863Z,36.30
2018-04-18T17:13:23.821Z,36.70
2018-04-18T17:16:27.059Z,36.60
2018-04-18T17:19:30.216Z,37.00
2018-04-18T17:22:33.452Z,37.70
2018-04-18T17:25:37.333Z,39.20
2018-04-18T17:28:40.686Z,39.50
2018-04-18T17:31:43.940Z,39.60
2018-04-18T17:34:48.983Z,39.80
2018-04-18T17:37:53.015Z,39.70
2018-04-18T17:40:57.018Z,40.60
2018-04-18T17:44:00.254Z,40.50
2018-04-18T17:47:03.464Z,40.60
2018-04-18T17:50:06.622Z,40.20
2018-04-18T17:53:10.105Z,40.70
2018-04-18T17:56:13.442Z,42.20
2018-04-18T17:59:16.624Z,42.10
2018-04-18T18:02:19.827Z,42.60
2018-04-18T18:05:23.186Z,42.70
2018-04-18T18:08:27.136Z,43.50
2018-04-18T18:11:30.317Z,43.40
2018-04-18T18:14:33.539Z,43.90
2018-04-18T18:17:36.732Z,44.00
2018-04-18T18:20:40.032Z,44.90
2018-04-18T18:23:43.416Z,47.00
2018-04-18T18:26:47.519Z,48.40
2018-04-18T18:29:50.729Z,48.50
2018-04-18T18:32:54.039Z,49.80
2018-04-18T18:35:57.368Z,51.30
2018-04-18T18:39:00.661Z,52.20
2018-04-18T18:42:03.861Z,54.00
2018-04-18T18:45:07.096Z,54.30
2018-04-18T18:48:10.313Z,54.80
2018-04-18T18:51:13.523Z,55.00
2018-04-18T18:54:16.712Z,56.00
2018-04-18T18:57:20.658Z,56.50
2018-04-18T19:00:23.810Z,57.00
2018-04-18T19:03:27.141Z,59.20
2018-04-18T19:06:30.334Z,59.40
2018-04-18T19:09:33.770Z,61.90
2018-04-18T19:12:37.856Z,62.60
2018-04-18T19:15:41.468Z,63.90
2018-04-18T19:18:44.637Z,63.10
2018-04-18T19:21:48.890Z,63.90
2018-04-18T19:24:52.823Z,68.10
2018-04-18T19:27:56.834Z,68.00
2018-04-18T19:31:00.245Z,66.20
2018-04-18T19:34:03.506Z,67.40
2018-04-18T19:37:07.663Z,69.20
2018-04-18T19:40:11.693Z,70.00
2018-04-18T19:43:14.905Z,69.70
2018-04-18T19:46:18.766Z,71.60
2018-04-18T19:49:22.077Z,71.80
2018-04-18T19:52:25.399Z,70.50
2018-04-18T19:55:29.507Z,73.30
2018-04-18T19:58:33.601Z,74.60
2018-04-18T20:01:36.910Z,73.90
2018-04-18T20:04:40.331Z,73.80
2018-04-18T20:07:44.431Z,76.20
2018-04-18T20:10:49.592Z,75.80
2018-04-18T20:13:52.816Z,76.00
2018-04-18T20:16:56.096Z,76.50
2018-04-18T20:20:00.092Z,75.90
2018-04-18T20:23:04.834Z,76.70
2018-04-18T20:26:08.879Z,76.80
2018-04-18T20:29:12.182Z,76.50
2018-04-18T20:32:15.447Z,79.50
2018-04-18T20:35:19.441Z,79.00
2018-04-18T20:38:22.697Z,78.80
2018-04-18T20:41:25.984Z,80.50
2018-04-18T20:44:29.265Z,79.00
2018-04-18T20:47:32.478Z,79.30
2018-04-18T20:50:35.775Z,80.20
2018-04-18T20:53:39.764Z,78.80
2018-04-18T20:56:43.021Z,82.00
2018-04-18T20:59:46.276Z,82.20
2018-04-18T21:02:49.657Z,80.60
2018-04-18T21:05:52.971Z,82.40
2018-04-18T21:08:56.266Z,82.90
2018-04-18T21:11:59.508Z,81.40
2018-04-18T21:15:03.505Z,81.80
2018-04-18T21:18:06.704Z,81.70
2018-04-18T21:21:09.961Z,81.80
2018-04-18T21:24:13.200Z,83.20
2018-04-18T21:27:16.396Z,81.70
2018-04-18T21:30:19.656Z,81.20
2018-04-18T21:33:22.844Z,83.20
2018-04-18T21:36:26.072Z,83.30
2018-04-18T21:39:29.335Z,84.80
2018-04-18T21:42:32.547Z,85.10
2018-04-18T21:45:35.777Z,84.60
2018-04-18T21:48:39.055Z,85.10
2018-04-18T21:51:42.381Z,85.60
2018-04-18T21:54:46.433Z,87.30
2018-04-18T21:57:50.469Z,86.90
2018-04-18T22:00:53.708Z,87.00
2018-04-18T22:03:57.080Z,86.40
2018-04-18T22:07:00.312Z,85.90
2018-04-18T22:10:03.616Z,86.00
2018-04-18T22:13:06.860Z,87.40
2018-04-18T22:16:10.787Z,87.40
2018-04-18T22:19:13.990Z,87.70
2018-04-18T22:22:17.154Z,89.80
2018-04-18T22:25:20.437Z,88.80
2018-04-18T22:28:23.942Z,89.40
2018-04-18T22:31:27.181Z,90.00
2018-04-18T22:34:30.421Z,89.10
2018-04-18T22:37:33.751Z,88.60
2018-04-18T22:40:37.897Z,90.40
2018-04-18T22:43:41.364Z,90.00
2018-04-18T22:46:44.731Z,90.10
2018-04-18T22:49:48.003Z,90.10
2018-04-18T22:52:51.287Z,90.60
2018-04-18T22:55:55.273Z,90.70
2018-04-18T22:58:58.932Z,90.50
2018-04-18T23:02:02.203Z,90.80
2018-04-18T23:05:06.253Z,91.00
2018-04-18T23:08:09.498Z,90.90
2018-04-18T23:11:21.188Z,91.80
2018-04-18T23:14:24.489Z,91.30
2018-04-18T23:17:27.762Z,91.40
2018-04-18T23:20:31.033Z,91.50
2018-04-18T23:23:34.881Z,91.60
2018-04-18T23:26:38.887Z,91.90
2018-04-18T23:29:42.184Z,91.50
2018-04-18T23:32:45.479Z,91.60
2018-04-18T23:35:49.529Z,92.50
2018-04-18T23:38:52.796Z,92.30
2018-04-18T23:41:56.130Z,91.80
2018-04-18T23:44:59.432Z,91.70
2018-04-18T23:48:02.717Z,91.70
2018-04-18T23:51:06.008Z,92.10
2018-04-18T23:54:10.015Z,92.30
2018-04-18T23:57:14.025Z,92.60
